Arvin, California
Current Conditions -  °F | °C
As of 4:13 AM on Monday 26 Jan 2015 (Local Time) from KBFL Reporting Station
Haze Haze  
Wind Chill: 42°   Ceiling: Unl
Heat Index: 42°   Visibility: 2.5mi
Dew Point: 38°   Wind: 0mph
Humidity: 85%   Direction: NA
Pressure: 30.04"   Gusts: NA
Location:  35.21°N, 118.82°W
Report Text: KBFL 261213Z AUTO 00000KT 2 1/2SM BR CLR 06/03 A3004 RMK AO2 T00560033
Loading
Personal Weather Stations






























Interactive Weather Map New forecast layout! Learn more

10-Day Weather Forecast

Advertisements
Track Severe Weather on mobile